Findlay, OH (45840)

3:46 AM EDT on September 02, 2014 (GMT -0400)
Findlay | Change Station
CLOSE
Current Station
Personal Weather Station
Location: Findlay, OH
Elevation: 814 ft
Nearby Weather Stations

Elev 814 ft 41.07 °N, 83.65 °W | Updated 14 minutes ago

Clear
Clear
71.0 °F
Feels Like 71.0 °F
N
1.0
Wind Variable Wind from South
Gusts 5.0 mph

Today
High -- | Low -- °F
--% Chance of Precip.
Yesterday
High -- | Low -- °F
Precip. -- in
7:02 AM 8:05 PM
Waxing Crescent, 49% visible
Pressure 29.88 in
Visibility 10.0 miles
Clouds Clear
Dew Point 68 °F
Humidity 89%
Rainfall -999.00 in
Snow Depth Not available.
UV 0 out of 12
Pollen 9.00 out of 12
Air Quality Not available.
Flu Activity Not available.
METAR KFDY 020653Z AUTO 23009KT 10SM CLR 22/19 A2991 RMK AO2 SLP118 T02220194

More Conditions Fewer Conditions

Pressure 29.88 in
Visibility 10.0 miles
Clouds Clear
Dew Point 68 °F
Humidity 89%
Rainfall -999.00 in
Snow Depth Not available.
UV 0 out of 12
Pollen 9.00 out of 12
Air Quality Not available.
Flu Activity Not available.
METAR KFDY 020653Z AUTO 23009KT 10SM CLR 22/19 A2991 RMK AO2 SLP118 T02220194

More Conditions Fewer Conditions

10-Day Weather Forecast

Almanac

Astronomy

Sep. 02, 2014 Rise Set
Actual Time 7:02 AM EDT 8:05 PM EDT
Civil Twilight 6:34 AM EDT 8:33 PM EDT
Nautical Twilight 6:00 AM EDT 9:07 PM EDT
Astronomical Twilight 5:25 AM EDT 9:42 PM EDT
Moon 2:49 PM EDT 12:04 AM EDT
Length of Visible Light 13h 59m
Length of Day
13h 03m
Tomorrow will be 2m 37s shorter.
Waxing Crescent, 49% of the Moon is Illuminated
Today
Waxing Crescent
Sep 2
First Quarter
Sep 8
Full
Sep 15
Last Quarter
Sep 24
New

Today's Extremes

State Highs State Lows

Community

WunderPhotos

Upload Photos

1,749,589 photos uploaded!

WunderBlogs® & News

Nearby

Snow Depth

Station Depth Elevation
No new snow has been reported.

Earthquake Activity

City Distance Mag. Time & Date
No recent earthquake activity has been reported nearby.
Minimum magnitude displayed is 2.5.

Coastal Water Temperatures

Place Temperature
No Stations Reporting

Nearby Weather Stations